Time;durP1;ratioP1;P1;durP2;ratioP2;P2;SDS_P1;SDS_P2;PMS_P1;PMS_P2;Temp;Humidity;BMP_temperature;BMP_pressure;BME280_temperature;BME280_humidity;BME280_pressure;Samples;Min_cycle;Max_cycle;Signal;HPM_P1;HPM_P2
2022/05/27 00:02:10;;;;;;;;;1.50;1.50;;;;;17.78;45.36;102064.00;5079955;27;45485;-58
2022/05/27 00:04:35;;;;;;;;;1.00;1.00;;;;;17.74;45.64;102063.19;5061294;27;46097;-58
2022/05/27 00:07:01;;;;;;;;;1.00;1.00;;;;;17.65;45.35;102042.16;5059795;28;45369;-57
2022/05/27 00:09:26;;;;;;;;;3.25;1.00;;;;;17.64;45.53;102053.69;5059950;28;45889;-58
2022/05/27 00:11:52;;;;;;;;;0.75;0.00;;;;;17.64;45.61;102043.94;5059882;28;45364;-58
2022/05/27 00:14:17;;;;;;;;;1.00;1.00;;;;;17.64;45.69;102043.06;5059632;28;46024;-58
2022/05/27 00:16:42;;;;;;;;;0.00;0.00;;;;;17.62;45.62;102045.75;5063274;28;45217;-58
2022/05/27 00:19:08;;;;;;;;;1.00;1.00;;;;;17.61;45.70;102045.78;5063495;28;45133;-58
2022/05/27 00:21:33;;;;;;;;;1.00;1.00;;;;;17.59;45.66;102043.16;5063341;28;45288;-58
2022/05/27 00:24:00;;;;;;;;;3.00;1.00;;;;;17.58;45.72;102046.72;5063201;28;45294;-58
2022/05/27 00:26:26;;;;;;;;;3.00;1.75;;;;;17.57;45.68;102047.63;5062986;28;45223;-58
2022/05/27 00:28:51;;;;;;;;;4.50;1.50;;;;;17.53;45.47;102040.63;5080431;28;45492;-58
2022/05/27 00:31:20;;;;;;;;;1.00;1.00;;;;;17.54;45.77;102029.97;5083772;28;45466;-58
2022/05/27 00:33:46;;;;;;;;;2.00;2.00;;;;;17.53;45.84;102035.31;5082785;27;45354;-58
2022/05/27 00:36:14;;;;;;;;;1.75;1.00;;;;;17.50;45.88;102033.63;5083551;27;45271;-58
2022/05/27 00:38:40;;;;;;;;;5.00;1.00;;;;;17.49;45.55;102025.69;5083331;27;45299;-58
2022/05/27 00:41:07;;;;;;;;;1.00;1.00;;;;;17.51;45.67;102023.88;5083025;27;45166;-58
2022/05/27 00:43:32;;;;;;;;;1.50;1.00;;;;;17.51;45.75;102026.53;5083026;27;46146;-58
2022/05/27 00:46:03;;;;;;;;;2.75;1.00;;;;;17.49;45.93;102021.22;5083163;28;45425;-58
2022/05/27 00:48:29;;;;;;;;;2.00;1.00;;;;;17.49;45.95;102020.38;5083190;27;45228;-58
2022/05/27 00:50:56;;;;;;;;;1.00;1.00;;;;;17.48;45.98;102014.19;5083208;28;45230;-58
2022/05/27 00:53:38;;;;;;;;;0.75;0.00;;;;;17.46;45.98;102012.44;5083063;27;45366;-58
2022/05/27 00:56:07;;;;;;;;;1.00;1.00;;;;;17.40;46.17;102005.50;5082678;27;45647;-58
2022/05/27 00:58:40;;;;;;;;;4.00;1.25;;;;;17.42;45.95;102014.34;5083318;27;45334;-58
2022/05/27 01:01:05;;;;;;;;;2.00;1.00;;;;;17.40;45.89;102010.81;5082866;27;45367;-58
2022/05/27 01:03:32;;;;;;;;;0.00;0.00;;;;;17.42;45.85;102009.03;5072855;27;46026;-58
2022/05/27 01:05:58;;;;;;;;;1.00;1.00;;;;;17.42;45.94;102014.34;5062741;28;45325;-58
2022/05/27 01:08:28;;;;;;;;;2.00;2.00;;;;;17.44;45.64;102015.16;5062782;28;45274;-58
2022/05/27 01:10:53;;;;;;;;;0.50;0.50;;;;;17.43;45.75;102018.72;5062332;28;45264;-58
2022/05/27 01:13:40;;;;;;;;;0.25;0.25;;;;;17.42;45.98;102019.66;5062465;28;45874;-58
2022/05/27 01:16:20;;;;;;;;;2.25;1.00;;;;;17.38;46.26;102015.28;5069138;28;45313;-58
2022/05/27 01:22:31;;;;;;;;;2.25;1.00;;;;;17.26;46.20;102013.78;5082527;28;45272;-58
2022/05/27 01:25:06;;;;;;;;;1.50;1.00;;;;;17.19;46.43;102009.50;5082228;28;46154;-58
2022/05/27 01:28:01;;;;;;;;;1.75;1.00;;;;;17.17;46.46;102009.56;5082313;27;45310;-58
2022/05/27 01:30:36;;;;;;;;;2.50;1.75;;;;;17.14;46.63;102014.91;5057375;28;45325;-58
2022/05/27 01:33:14;;;;;;;;;1.25;1.00;;;;;17.11;46.53;102015.00;5081409;28;45270;-58
2022/05/27 01:36:04;;;;;;;;;1.00;1.00;;;;;17.08;46.67;102007.09;5082373;27;45181;-57
2022/05/27 01:38:56;;;;;;;;;4.25;3.00;;;;;17.06;46.40;102009.78;5077475;28;45445;-58
2022/05/27 01:42:05;;;;;;;;;1.00;1.00;;;;;17.05;46.62;102009.81;5076248;28;45232;-57
2022/05/27 01:44:38;;;;;;;;;3.00;1.00;;;;;16.99;46.38;101999.31;5080919;27;45291;-57
2022/05/27 01:47:06;;;;;;;;;4.00;2.00;;;;;17.03;46.76;102004.53;5082058;27;45426;-57
2022/05/27 01:49:44;;;;;;;;;1.00;1.00;;;;;17.03;46.58;102006.31;5081971;27;45425;-57
2022/05/27 01:52:34;;;;;;;;;2.00;1.00;;;;;17.02;46.60;102005.44;5082527;28;45311;-57
2022/05/27 01:55:18;;;;;;;;;2.25;2.25;;;;;17.00;46.49;101995.75;5081821;27;45353;-58
2022/05/27 01:57:50;;;;;;;;;3.50;2.00;;;;;16.97;46.79;101995.84;5081825;27;45364;-57
2022/05/27 02:00:23;;;;;;;;;3.00;3.00;;;;;16.96;46.86;102005.56;5082190;27;45315;-57
2022/05/27 02:02:48;;;;;;;;;2.00;1.75;;;;;16.95;46.88;102006.47;5078250;27;45258;-57
2022/05/27 02:05:46;;;;;;;;;3.50;2.00;;;;;16.95;46.66;102005.59;5061766;28;45177;-57
2022/05/27 02:08:24;;;;;;;;;1.50;1.50;;;;;16.94;46.50;102001.19;5061082;28;46466;-57
2022/05/27 02:11:04;;;;;;;;;1.00;1.00;;;;;16.94;46.89;102001.19;5061181;28;45316;-57
2022/05/27 02:13:38;;;;;;;;;1.00;1.00;;;;;16.90;46.85;102000.34;5061894;28;45309;-57
2022/05/27 02:16:07;;;;;;;;;2.00;2.00;;;;;16.88;46.69;101999.53;5079242;28;45395;-57
2022/05/27 02:18:46;;;;;;;;;1.00;1.00;;;;;16.84;47.02;102001.38;5080271;28;46634;-57
2022/05/27 02:21:27;;;;;;;;;2.00;1.00;;;;;16.84;46.74;101998.72;5076997;28;46176;-57
2022/05/27 02:24:03;;;;;;;;;2.00;2.00;;;;;16.81;46.86;101992.59;5078280;28;45369;-57
2022/05/27 02:26:32;;;;;;;;;2.00;1.00;;;;;16.78;46.99;101996.19;5081189;27;45611;-56
2022/05/27 02:29:12;;;;;;;;;3.00;2.25;;;;;16.75;46.98;101993.56;5080422;27;45257;-57
2022/05/27 02:31:43;;;;;;;;;2.00;2.00;;;;;16.71;46.96;101990.09;5081311;27;45349;-57
2022/05/27 02:37:23;;;;;;;;;5.25;3.00;;;;;16.63;47.22;101988.50;5080841;28;45248;-57
2022/05/27 02:39:48;;;;;;;;;4.75;2.00;;;;;16.63;47.06;101994.69;5080026;28;46319;-57
2022/05/27 02:42:28;;;;;;;;;3.75;3.75;;;;;16.65;46.76;101992.00;5081288;27;45351;-57
2022/05/27 02:45:23;;;;;;;;;3.00;1.75;;;;;16.65;47.01;101990.22;5081578;27;45298;-57
2022/05/27 02:47:56;;;;;;;;;2.00;2.00;;;;;16.66;47.26;101991.97;5079026;28;45579;-57
2022/05/27 02:50:49;;;;;;;;;2.00;2.00;;;;;16.64;47.20;101992.91;5079934;28;45359;-57
2022/05/27 02:53:20;;;;;;;;;4.00;2.00;;;;;16.66;47.19;101997.28;5080995;27;45187;-57
2022/05/27 02:55:51;;;;;;;;;6.25;3.25;;;;;16.64;47.33;102000.88;5076299;28;45371;-57
2022/05/27 02:58:17;;;;;;;;;3.25;1.00;;;;;16.62;47.00;102000.91;5081027;28;45664;-57
2022/05/27 03:00:44;;;;;;;;;2.50;2.00;;;;;16.61;47.27;101995.63;5079949;27;45360;-57
2022/05/27 03:03:10;;;;;;;;;3.00;1.75;;;;;16.58;47.18;101996.56;5074551;27;45334;-56
2022/05/27 03:05:47;;;;;;;;;4.50;2.00;;;;;16.56;47.51;101991.31;5060843;28;45312;-56
2022/05/27 03:08:27;;;;;;;;;3.00;3.00;;;;;16.58;47.61;101984.16;5063688;28;45447;-57
2022/05/27 03:11:14;;;;;;;;;2.00;2.00;;;;;16.57;47.35;101989.50;5077114;28;45421;-57
2022/05/27 03:14:04;;;;;;;;;6.00;3.75;;;;;16.57;47.76;101993.03;5080919;27;45461;-57
2022/05/27 03:16:42;;;;;;;;;4.25;2.75;;;;;16.56;47.66;101991.31;5080892;27;45298;-57
2022/05/27 03:19:42;;;;;;;;;1.50;1.25;;;;;16.57;47.43;102008.94;5080731;27;45341;-57
2022/05/27 03:22:49;;;;;;;;;2.75;2.00;;;;;16.57;47.77;102002.78;5080255;28;46070;-57
2022/05/27 03:25:30;;;;;;;;;3.00;2.00;;;;;16.53;48.04;101996.66;5080089;27;45453;-57
2022/05/27 03:27:58;;;;;;;;;4.25;2.00;;;;;16.58;47.67;101991.28;5080957;27;45362;-57
2022/05/27 03:30:41;;;;;;;;;1.75;1.75;;;;;16.58;47.61;101997.44;5080474;27;45545;-56
2022/05/27 03:33:15;;;;;;;;;1.00;1.00;;;;;16.59;47.54;101987.72;5079411;28;46210;-56
2022/05/27 03:35:41;;;;;;;;;4.50;2.75;;;;;16.58;47.86;101992.13;5080789;27;45344;-55
2022/05/27 03:38:17;;;;;;;;;2.50;2.50;;;;;16.56;47.67;102001.91;5080651;28;45236;-55
2022/05/27 03:41:09;;;;;;;;;4.00;2.75;;;;;16.54;48.23;101989.56;5080322;27;45177;-55
2022/05/27 03:43:36;;;;;;;;;3.00;1.50;;;;;16.51;48.07;101993.16;5080151;27;45393;-55
2022/05/27 03:46:03;;;;;;;;;4.00;2.00;;;;;16.46;48.05;101987.06;5080286;27;45489;-56
2022/05/27 03:48:32;;;;;;;;;3.00;3.00;;;;;16.40;48.25;101989.81;5079026;28;45489;-56
2022/05/27 03:51:06;;;;;;;;;3.25;2.00;;;;;16.40;48.08;101989.81;5074498;28;45402;-56
2022/05/27 03:56:16;;;;;;;;;3.25;2.75;;;;;16.35;47.85;102003.19;5079966;28;45385;-55
2022/05/27 03:58:41;;;;;;;;;2.00;2.00;;;;;16.33;48.32;102001.47;5080479;27;45214;-55
2022/05/27 04:01:06;;;;;;;;;3.00;2.75;;;;;16.28;48.19;101982.13;5080153;28;45173;-57
2022/05/27 04:03:32;;;;;;;;;2.25;2.25;;;;;16.26;48.08;102003.34;5069927;27;45409;-56
2022/05/27 04:05:57;;;;;;;;;6.00;5.00;;;;;16.25;48.27;102013.09;5059724;28;45322;-55
2022/05/27 04:08:23;;;;;;;;;4.50;4.50;;;;;16.26;48.11;102008.66;5060251;28;45298;-56
2022/05/27 04:10:48;;;;;;;;;5.00;3.75;;;;;16.22;48.16;102005.16;5059497;28;45338;-57
2022/05/27 04:13:13;;;;;;;;;5.00;5.00;;;;;16.24;48.30;101998.06;5059875;28;45413;-56
2022/05/27 04:15:39;;;;;;;;;4.50;4.50;;;;;16.26;48.53;102003.34;5059461;28;45441;-56
2022/05/27 04:18:04;;;;;;;;;4.25;4.25;;;;;16.26;48.33;102006.00;5060126;28;45295;-56
2022/05/27 04:20:29;;;;;;;;;4.25;4.25;;;;;16.29;47.78;102007.72;5058209;28;45274;-56
2022/05/27 04:22:55;;;;;;;;;5.25;4.75;;;;;16.27;48.29;102004.22;5059774;28;45384;-56
2022/05/27 04:25:21;;;;;;;;;5.00;3.00;;;;;16.28;48.34;102012.16;5059214;28;46040;-57
2022/05/27 04:27:46;;;;;;;;;9.50;6.00;;;;;16.27;48.19;102010.41;5059863;28;45375;-56
2022/05/27 04:30:12;;;;;;;;;6.00;5.50;;;;;16.26;47.99;102006.00;5059640;28;45493;-56
2022/05/27 04:32:39;;;;;;;;;7.25;5.25;;;;;16.24;48.06;102013.13;5059418;28;45216;-56
2022/05/27 04:35:05;;;;;;;;;4.75;4.75;;;;;16.28;48.65;102027.22;5059507;28;45472;-56
2022/05/27 04:37:30;;;;;;;;;6.25;5.00;;;;;16.24;48.63;102024.59;5059543;28;45279;-56
2022/05/27 04:39:56;;;;;;;;;3.25;3.00;;;;;16.24;48.50;102021.94;5059143;28;45244;-54
2022/05/27 04:42:21;;;;;;;;;7.00;5.75;;;;;16.25;48.20;102012.19;5059272;28;45284;-56
2022/05/27 04:44:47;;;;;;;;;9.25;9.00;;;;;16.28;48.06;102016.59;5059444;28;45263;-56
2022/05/27 04:47:12;;;;;;;;;11.00;9.50;;;;;16.29;48.36;102019.22;5059598;28;45482;-56
2022/05/27 04:49:58;;;;;;;;;10.50;7.50;;;;;16.29;48.58;102019.22;5074071;28;45531;-56
2022/05/27 04:52:26;;;;;;;;;9.25;7.25;;;;;16.28;48.36;102014.81;5079842;27;45452;-56
2022/05/27 04:54:53;;;;;;;;;11.50;10.25;;;;;16.29;48.90;102015.66;5077854;28;45815;-56
2022/05/27 04:57:24;;;;;;;;;14.00;11.50;;;;;16.28;48.36;102017.47;5079663;27;45218;-57
2022/05/27 04:59:50;;;;;;;;;15.00;11.75;;;;;16.29;48.75;102018.31;5079363;27;45553;-57
2022/05/27 05:02:21;;;;;;;;;11.00;9.00;;;;;16.29;48.77;102011.25;5081880;28;45479;-56
2022/05/27 05:04:47;;;;;;;;;12.25;10.75;;;;;16.32;48.70;102011.19;5069154;28;45279;-57
2022/05/27 05:07:12;;;;;;;;;15.00;11.00;;;;;16.26;48.54;102008.66;5078333;28;45268;-57
2022/05/27 05:09:40;;;;;;;;;11.75;10.00;;;;;16.35;48.79;102024.41;5082765;28;45589;-57
2022/05/27 05:12:07;;;;;;;;;13.25;12.25;;;;;16.36;48.36;102015.56;5082679;27;46408;-58
2022/05/27 05:14:33;;;;;;;;;10.25;10.25;;;;;16.38;48.66;102027.00;5082865;27;45487;-57
2022/05/27 05:16:58;;;;;;;;;11.50;11.00;;;;;16.42;48.61;102027.81;5082873;27;45231;-57
2022/05/27 05:19:24;;;;;;;;;9.00;8.00;;;;;16.44;48.78;102023.38;5082835;27;45156;-57
2022/05/27 05:21:49;;;;;;;;;11.50;10.25;;;;;16.46;48.46;102024.19;5082627;27;45200;-57
2022/05/27 05:24:15;;;;;;;;;12.50;10.75;;;;;16.49;48.75;102016.19;5082692;28;45250;-57
2022/05/27 05:26:40;;;;;;;;;9.25;8.50;;;;;16.53;48.53;102028.50;5082433;27;45220;-57
2022/05/27 05:29:06;;;;;;;;;9.00;6.50;;;;;16.53;48.74;102015.22;5078038;28;45320;-57
2022/05/27 05:31:32;;;;;;;;;13.75;12.00;;;;;16.55;48.79;102021.38;5074299;28;45285;-57
2022/05/27 05:33:59;;;;;;;;;10.50;9.75;;;;;16.55;48.78;102025.81;5082521;27;45445;-57
2022/05/27 05:36:26;;;;;;;;;9.50;8.75;;;;;16.54;48.71;102022.28;5082462;27;45242;-57
2022/05/27 05:38:51;;;;;;;;;10.75;10.25;;;;;16.56;48.69;102028.47;5082521;27;45248;-56
2022/05/27 05:41:55;;;;;;;;;13.00;9.50;;;;;16.59;48.76;102024.88;5081080;27;45426;-57
2022/05/27 05:44:20;;;;;;;;;14.25;10.25;;;;;16.57;48.49;102024.88;5075738;28;45566;-57
2022/05/27 05:46:48;;;;;;;;;16.50;12.00;;;;;16.58;48.70;102021.31;5082141;27;45337;-57
2022/05/27 05:49:13;;;;;;;;;10.75;8.75;;;;;16.56;48.93;102023.16;5082240;27;45247;-57
2022/05/27 05:51:38;;;;;;;;;10.25;8.00;;;;;16.52;48.64;102020.56;5081968;27;45447;-56
2022/05/27 05:54:04;;;;;;;;;11.75;9.25;;;;;16.52;49.09;102025.88;5082313;27;45223;-56
2022/05/27 05:56:31;;;;;;;;;10.50;7.50;;;;;16.49;49.02;102021.50;5081978;27;45319;-56
2022/05/27 05:58:57;;;;;;;;;12.50;10.50;;;;;16.47;49.09;102023.31;5081766;27;45477;-57
2022/05/27 06:01:22;;;;;;;;;15.00;10.75;;;;;16.47;49.04;102023.31;5081642;28;45637;-57
2022/05/27 06:03:47;;;;;;;;;9.00;7.00;;;;;16.47;49.10;102017.13;5070308;27;45287;-56
2022/05/27 06:06:13;;;;;;;;;10.75;8.50;;;;;16.44;49.03;102022.47;5061629;28;45349;-56
2022/05/27 06:08:39;;;;;;;;;11.25;9.25;;;;;16.45;49.08;102026.88;5061788;28;45467;-56
2022/05/27 06:11:09;;;;;;;;;10.50;10.50;;;;;16.44;49.00;102033.09;5061290;28;46505;-56
2022/05/27 06:13:35;;;;;;;;;13.00;10.25;;;;;16.41;49.26;102018.09;5060514;28;45201;-56
2022/05/27 06:16:02;;;;;;;;;9.00;8.75;;;;;16.42;49.24;102025.16;5061315;28;45236;-56
2022/05/27 06:18:28;;;;;;;;;14.00;13.25;;;;;16.39;49.01;102010.19;5061392;28;45346;-57
2022/05/27 06:20:53;;;;;;;;;15.50;11.75;;;;;16.44;49.37;102033.09;5061066;28;45393;-56
2022/05/27 06:23:18;;;;;;;;;13.75;10.25;;;;;16.42;49.26;102025.16;5072253;28;45272;-56
2022/05/27 06:25:44;;;;;;;;;11.75;8.50;;;;;16.43;49.20;102032.22;5081294;27;45345;-56
2022/05/27 06:36:21;;;;;;;;;17.00;14.25;;;;;16.40;49.41;102033.16;5081640;28;45307;-55
2022/05/27 06:38:47;;;;;;;;;14.25;13.75;;;;;16.39;49.37;102031.41;5081445;27;45226;-55
2022/05/27 06:41:13;;;;;;;;;9.00;6.00;;;;;16.41;49.43;102028.72;5081273;27;45519;-55
2022/05/27 06:43:39;;;;;;;;;14.00;10.75;;;;;16.38;49.49;102031.44;5081299;27;45372;-55
2022/05/27 06:46:04;;;;;;;;;12.75;10.50;;;;;16.40;49.61;102034.91;5081334;28;45352;-56
2022/05/27 06:48:29;;;;;;;;;9.50;7.75;;;;;16.41;49.65;102034.91;5079727;28;45540;-56
2022/05/27 06:50:56;;;;;;;;;8.75;8.50;;;;;16.42;49.60;102036.63;5081272;28;45244;-56
2022/05/27 06:53:22;;;;;;;;;5.00;5.00;;;;;16.45;49.60;102046.31;5081266;28;45334;-56
2022/05/27 06:55:52;;;;;;;;;8.00;5.50;;;;;16.48;49.31;102042.75;5081120;27;45241;-56
2022/05/27 06:58:17;;;;;;;;;4.75;4.00;;;;;16.50;49.58;102048.91;5081276;27;45478;-56
2022/05/27 07:00:43;;;;;;;;;4.00;4.00;;;;;16.51;49.51;102043.56;5080773;27;46343;-56
2022/05/27 07:03:09;;;;;;;;;5.25;4.25;;;;;16.51;49.89;102042.69;5073448;27;45399;-55
2022/05/27 07:05:35;;;;;;;;;4.75;3.25;;;;;16.48;49.73;102045.41;5060793;28;45252;-56
2022/05/27 07:08:03;;;;;;;;;4.50;3.75;;;;;16.50;50.01;102048.91;5060825;28;45343;-55
2022/05/27 07:10:29;;;;;;;;;4.25;3.50;;;;;16.46;49.61;102050.72;5060201;28;47090;-56
2022/05/27 07:12:56;;;;;;;;;2.50;2.50;;;;;16.49;49.70;102050.69;5060784;28;45406;-56
2022/05/27 07:15:21;;;;;;;;;3.50;3.00;;;;;16.51;50.03;102046.22;5060893;28;45190;-57
2022/05/27 07:17:47;;;;;;;;;0.00;0.00;;;;;16.49;49.71;102045.38;5063406;28;45277;-56
2022/05/27 07:20:12;;;;;;;;;3.75;3.75;;;;;16.49;50.38;102050.69;5075102;28;45861;-57
2022/05/27 07:22:37;;;;;;;;;3.50;2.75;;;;;16.45;49.87;102046.31;5080949;27;45337;-57
2022/05/27 07:25:03;;;;;;;;;4.25;3.50;;;;;16.49;50.04;102063.06;5080414;27;45356;-56
2022/05/27 07:27:28;;;;;;;;;4.75;3.00;;;;;16.49;49.91;102050.69;5080612;27;45459;-56
2022/05/27 07:29:54;;;;;;;;;4.00;4.00;;;;;16.48;50.43;102059.53;5080610;27;46123;-57
2022/05/27 07:32:19;;;;;;;;;7.00;6.00;;;;;16.48;50.18;102056.03;5080454;28;45318;-56
2022/05/27 07:34:46;;;;;;;;;5.00;2.25;;;;;16.47;50.17;102065.75;5079484;28;45414;-57
2022/05/27 07:37:12;;;;;;;;;4.50;4.50;;;;;16.46;50.24;102064.00;5080009;27;45539;-56
2022/05/27 07:39:37;;;;;;;;;8.75;5.50;;;;;16.46;50.35;102061.34;5078802;28;47690;-57
2022/05/27 07:42:03;;;;;;;;;3.50;3.50;;;;;16.48;50.03;102067.50;5075801;28;45253;-57
2022/05/27 07:44:28;;;;;;;;;4.25;3.00;;;;;16.41;50.45;102071.16;5074453;28;45421;-56
2022/05/27 07:46:54;;;;;;;;;4.50;3.00;;;;;16.44;50.40;102057.84;5079113;28;45247;-56
2022/05/27 07:49:20;;;;;;;;;4.75;4.00;;;;;16.48;50.19;102053.38;5080460;27;45224;-57
2022/05/27 07:51:49;;;;;;;;;7.50;7.50;;;;;16.51;50.57;102054.16;5080401;27;45227;-56
2022/05/27 07:54:14;;;;;;;;;4.50;4.00;;;;;16.46;50.66;102028.66;5079058;28;45487;-56
2022/05/27 07:56:40;;;;;;;;;11.75;9.75;;;;;16.56;50.31;102054.09;5080055;28;45326;-57
2022/05/27 07:59:06;;;;;;;;;6.25;6.25;;;;;16.60;50.42;102046.97;5080230;28;45396;-57
2022/05/27 08:01:31;;;;;;;;;7.50;7.25;;;;;16.62;50.35;102043.38;5080253;28;45256;-57
2022/05/27 08:03:57;;;;;;;;;5.00;4.75;;;;;16.69;50.58;102047.66;5066640;27;45388;-57
2022/05/27 08:06:22;;;;;;;;;4.00;3.75;;;;;16.76;50.46;102047.56;5060108;28;45387;-57
2022/05/27 08:08:48;;;;;;;;;8.00;6.50;;;;;16.78;50.05;102040.41;5058516;28;46866;-56
2022/05/27 08:11:13;;;;;;;;;16.75;15.00;;;;;16.80;50.44;102043.94;5059587;28;45220;-57
2022/05/27 08:13:39;;;;;;;;;7.00;7.00;;;;;16.84;50.31;102050.91;5060093;28;45246;-57
2022/05/27 08:16:06;;;;;;;;;6.75;6.75;;;;;16.89;50.32;102046.38;5059501;28;45228;-57
2022/05/27 08:18:31;;;;;;;;;11.50;8.25;;;;;16.89;50.67;102057.91;5059771;28;45247;-57
2022/05/27 08:20:57;;;;;;;;;8.00;7.00;;;;;16.94;50.05;102051.66;5059590;28;45277;-57
2022/05/27 08:23:24;;;;;;;;;7.75;6.00;;;;;16.98;50.22;102051.56;5060022;28;45290;-57
2022/05/27 08:25:50;;;;;;;;;4.50;4.25;;;;;17.02;50.48;102053.25;5057885;28;45380;-56
2022/05/27 08:28:15;;;;;;;;;6.75;6.50;;;;;17.05;50.37;102050.50;5059493;28;46907;-57
2022/05/27 08:30:41;;;;;;;;;7.25;4.50;;;;;17.04;50.62;102051.44;5059397;28;45245;-57
2022/05/27 08:33:07;;;;;;;;;7.50;5.25;;;;;17.09;50.28;102043.34;5059908;28;45311;-57
2022/05/27 08:38:26;;;;;;;;;4.50;4.50;;;;;17.15;50.28;102048.53;5062945;28;45834;-57
2022/05/27 08:41:00;;;;;;;;;5.75;5.50;;;;;17.19;50.52;102052.91;5062832;28;45315;-56
2022/05/27 08:43:38;;;;;;;;;6.00;4.00;;;;;17.24;50.51;102058.09;5062960;28;45350;-56
2022/05/27 08:46:32;;;;;;;;;8.75;7.00;;;;;17.22;50.15;102044.84;5062894;28;45382;-56
2022/05/27 08:49:05;;;;;;;;;7.75;7.75;;;;;17.29;50.30;102042.94;5073359;28;46097;-57
2022/05/27 08:51:45;;;;;;;;;6.00;6.00;;;;;17.34;50.15;102053.47;5083052;27;45458;-57
2022/05/27 08:54:15;;;;;;;;;6.50;5.25;;;;;17.37;50.44;102053.38;5083344;28;45236;-57
2022/05/27 08:59:43;;;;;;;;;7.50;5.00;;;;;17.40;50.18;102053.34;5082833;28;45882;-57
2022/05/27 09:02:32;;;;;;;;;6.25;4.25;;;;;17.42;50.41;102050.63;5076685;28;45430;-57
2022/05/27 09:05:08;;;;;;;;;5.00;3.75;;;;;17.42;50.30;102051.53;5071198;28;45259;-57
2022/05/27 09:08:00;;;;;;;;;8.00;5.75;;;;;17.45;50.23;102046.13;5082793;27;45437;-57
2022/05/27 09:10:46;;;;;;;;;10.75;7.00;;;;;17.45;50.29;102048.78;5081205;28;46230;-57
2022/05/27 09:13:18;;;;;;;;;6.25;5.00;;;;;17.47;50.75;102057.63;5078081;28;45339;-57
2022/05/27 09:15:52;;;;;;;;;6.75;4.75;;;;;17.49;50.40;102055.78;5077857;28;45280;-57
2022/05/27 09:18:54;;;;;;;;;8.75;8.75;;;;;17.52;50.38;102047.75;5073768;28;45430;-57
2022/05/27 09:22:10;;;;;;;;;5.75;5.75;;;;;17.58;50.35;102051.19;5082678;27;46265;-57
2022/05/27 09:25:06;;;;;;;;;5.00;5.00;;;;;17.61;50.25;102049.31;5082237;27;45176;-57
2022/05/27 09:28:02;;;;;;;;;5.50;5.50;;;;;17.64;50.31;102051.03;5082482;28;45222;-57
2022/05/27 09:30:30;;;;;;;;;5.25;5.25;;;;;17.68;50.33;102056.25;5077987;28;45867;-56
2022/05/27 09:33:02;;;;;;;;;6.00;5.75;;;;;17.68;50.42;102050.03;5073693;28;45323;-57
2022/05/27 09:35:38;;;;;;;;;5.75;5.00;;;;;17.69;50.59;102044.69;5082268;27;45353;-57
2022/05/27 09:38:06;;;;;;;;;7.00;6.00;;;;;17.70;50.40;102045.59;5082541;27;45342;-57
2022/05/27 09:40:40;;;;;;;;;6.50;6.00;;;;;17.70;50.38;102053.56;5082261;27;45298;-57
2022/05/27 09:43:36;;;;;;;;;8.50;7.00;;;;;17.75;50.74;102056.97;5081611;27;46620;-57
2022/05/27 09:46:05;;;;;;;;;7.75;7.25;;;;;17.77;50.75;102064.91;5077611;28;45514;-57
2022/05/27 09:48:30;;;;;;;;;4.25;3.25;;;;;17.78;50.79;102056.91;5068625;28;45245;-57
2022/05/27 09:51:00;;;;;;;;;6.50;4.50;;;;;17.81;50.58;102054.19;5082111;27;45218;-57
2022/05/27 09:53:48;;;;;;;;;6.00;6.00;;;;;17.83;50.65;102057.66;5068820;28;46322;-57
2022/05/27 09:56:14;;;;;;;;;5.00;5.00;;;;;17.85;50.80;102050.53;5081599;27;45389;-57
2022/05/27 09:58:45;;;;;;;;;4.50;4.50;;;;;17.87;50.61;102058.47;5082321;27;45247;-57
2022/05/27 10:01:28;;;;;;;;;4.00;3.50;;;;;17.87;50.83;102053.13;5081799;27;45488;-57
2022/05/27 10:04:00;;;;;;;;;5.00;5.00;;;;;17.89;50.97;102050.47;5068948;28;46242;-57
2022/05/27 10:06:28;;;;;;;;;5.00;5.00;;;;;17.92;50.82;102053.91;5068486;28;45209;-57
2022/05/27 10:08:56;;;;;;;;;9.00;6.25;;;;;17.94;50.75;102048.59;5081993;28;45409;-57
2022/05/27 10:11:28;;;;;;;;;3.25;3.25;;;;;17.99;50.84;102049.38;5081782;28;45587;-57
2022/05/27 10:14:10;;;;;;;;;5.50;4.25;;;;;18.03;50.93;102043.03;5081847;27;46358;-57
2022/05/27 10:16:38;;;;;;;;;5.50;4.50;;;;;18.05;50.83;102046.56;5081930;27;45263;-57
2022/05/27 10:19:13;;;;;;;;;5.50;5.50;;;;;18.12;51.03;102037.47;5081772;27;45312;-56
2022/05/27 10:21:58;;;;;;;;;6.50;5.50;;;;;18.21;50.64;102040.84;5081751;27;45360;-57
2022/05/27 10:24:31;;;;;;;;;7.25;5.00;;;;;18.27;50.79;102046.00;5081412;28;45383;-57
2022/05/27 10:27:16;;;;;;;;;3.75;3.75;;;;;18.31;50.90;102042.34;5080225;28;45189;-56
2022/05/27 10:29:54;;;;;;;;;5.75;4.25;;;;;18.38;50.90;102038.63;5081840;27;45298;-56
2022/05/27 10:32:38;;;;;;;;;5.00;4.00;;;;;18.46;50.89;102036.59;5080115;28;45499;-57
2022/05/27 10:35:26;;;;;;;;;4.00;3.25;;;;;18.52;51.08;102031.13;5081462;27;45289;-58
2022/05/27 10:38:00;;;;;;;;;5.00;4.00;;;;;18.63;50.64;102032.63;5081288;28;45274;-57
2022/05/27 10:40:35;;;;;;;;;3.50;3.50;;;;;18.70;50.70;102036.00;5081218;27;45322;-57
2022/05/27 10:43:01;;;;;;;;;4.50;3.75;;;;;18.75;50.90;102020.75;5080025;28;45597;-57
2022/05/27 10:45:43;;;;;;;;;6.25;6.25;;;;;18.84;51.07;102024.03;5081165;27;46474;-58
2022/05/27 10:48:47;;;;;;;;;4.50;4.50;;;;;18.99;50.73;102014.78;5081181;27;45435;-57
2022/05/27 10:51:26;;;;;;;;;3.25;3.00;;;;;19.16;50.91;102024.91;5080007;28;45416;-57
2022/05/27 10:54:18;;;;;;;;;5.25;3.25;;;;;19.35;50.60;102027.03;5076591;28;45272;-57
2022/05/27 11:03:10;;;;;;;;;4.75;3.75;;;;;19.70;50.37;102025.03;5076912;28;45360;-57
2022/05/27 11:05:38;;;;;;;;;3.75;3.75;;;;;19.77;50.45;102021.25;5060635;28;45367;-57
2022/05/27 11:08:25;;;;;;;;;2.00;2.00;;;;;19.84;50.70;102024.63;5060721;28;45506;-57
2022/05/27 11:11:20;;;;;;;;;4.00;4.00;;;;;19.85;50.01;102029.03;5058946;28;45431;-57
2022/05/27 11:16:53;;;;;;;;;5.00;5.00;;;;;20.00;49.95;102035.66;5060385;28;45296;-58
2022/05/27 11:19:37;;;;;;;;;3.25;3.00;;;;;20.04;50.39;102018.63;5060485;28;46107;-58
2022/05/27 11:22:21;;;;;;;;;4.25;4.25;;;;;20.05;49.97;102024.81;5060519;28;45280;-57
2022/05/27 11:25:28;;;;;;;;;5.50;4.00;;;;;20.05;49.76;102020.38;5060288;28;45318;-58
2022/05/27 11:28:24;;;;;;;;;5.00;5.00;;;;;20.07;49.76;102026.50;5071509;28;45473;-57
2022/05/27 11:30:55;;;;;;;;;3.00;2.25;;;;;20.07;49.74;102022.97;5080535;28;45300;-57
2022/05/27 11:33:53;;;;;;;;;4.50;3.75;;;;;20.09;49.57;102018.47;5078312;28;45380;-57
2022/05/27 11:36:24;;;;;;;;;5.00;4.00;;;;;20.11;49.65;102017.50;5080830;27;45351;-58
2022/05/27 11:39:12;;;;;;;;;2.50;2.50;;;;;20.13;49.85;102006.75;5080553;27;45276;-58
2022/05/27 11:41:55;;;;;;;;;5.75;4.75;;;;;20.13;49.71;101993.41;5079907;27;45939;-57
2022/05/27 11:44:43;;;;;;;;;5.75;5.75;;;;;20.12;49.68;101995.22;5080392;27;45448;-57
2022/05/27 11:47:19;;;;;;;;;5.00;5.00;;;;;20.14;49.78;101987.16;5080268;27;45484;-57
2022/05/27 11:50:19;;;;;;;;;4.25;4.00;;;;;20.17;49.37;101986.19;5080094;27;45191;-57
2022/05/27 11:53:17;;;;;;;;;4.75;3.00;;;;;20.21;49.86;101990.47;5080220;28;46504;-58
2022/05/27 11:56:14;;;;;;;;;6.00;4.75;;;;;20.23;49.53;101994.84;5079981;27;45258;-57
2022/05/27 11:58:59;;;;;;;;;4.25;3.75;;;;;20.24;49.86;101999.25;5080388;28;45237;-56
2022/05/27 12:01:30;;;;;;;;;3.50;3.50;;;;;20.26;50.49;101991.19;5079918;27;45318;-56
2022/05/27 12:04:00;;;;;;;;;3.00;3.00;;;;;20.26;49.73;101988.53;5066985;27;45314;-57
2022/05/27 12:06:35;;;;;;;;;4.00;3.00;;;;;20.27;49.35;101991.13;5066925;28;45304;-58
2022/05/27 12:09:07;;;;;;;;;3.00;3.00;;;;;20.29;49.26;101991.94;5080247;27;45270;-56
2022/05/27 12:11:52;;;;;;;;;3.00;3.00;;;;;20.34;49.46;101986.47;5081769;27;45419;-59
2022/05/27 12:14:43;;;;;;;;;4.00;4.00;;;;;20.37;48.97;101990.81;5083641;27;45365;-58
2022/05/27 12:17:14;;;;;;;;;2.25;2.25;;;;;20.42;49.00;101997.72;5077609;28;45357;-57
2022/05/27 12:19:48;;;;;;;;;3.25;3.25;;;;;20.45;49.05;101994.06;5079050;28;45387;-57
2022/05/27 12:22:22;;;;;;;;;4.00;3.75;;;;;20.49;49.49;101994.84;5079402;28;45366;-57
2022/05/27 12:25:10;;;;;;;;;4.00;3.00;;;;;20.52;49.54;101997.41;5083416;27;45280;-57